createdAt,value
2018-01-18T00:00:08.429Z,0
2018-01-18T00:01:18.370Z,0
2018-01-18T00:02:28.328Z,0
2018-01-18T00:03:38.282Z,0
2018-01-18T00:04:48.242Z,0
2018-01-18T00:05:58.189Z,0
2018-01-18T00:07:07.885Z,0
2018-01-18T00:08:17.565Z,0
2018-01-18T00:09:27.503Z,0
2018-01-18T00:10:36.688Z,0
2018-01-18T00:11:46.642Z,0
2018-01-18T00:12:56.573Z,0
2018-01-18T00:14:06.513Z,0
2018-01-18T00:15:15.944Z,0
2018-01-18T00:16:25.636Z,0
2018-01-18T00:17:35.590Z,0
2018-01-18T00:18:45.554Z,0
2018-01-18T00:19:55.489Z,0
2018-01-18T00:21:05.442Z,0
2018-01-18T00:22:15.138Z,0
2018-01-18T00:23:24.824Z,0
2018-01-18T00:24:34.771Z,0
2018-01-18T00:25:44.467Z,0
2018-01-18T00:26:54.400Z,0
2018-01-18T00:28:04.099Z,0
2018-01-18T00:29:14.050Z,0
2018-01-18T00:30:23.780Z,0
2018-01-18T00:31:33.739Z,0
2018-01-18T00:32:43.689Z,0
2018-01-18T00:33:53.635Z,0
2018-01-18T00:35:03.574Z,0
2018-01-18T00:36:13.524Z,0
2018-01-18T00:37:23.466Z,0
2018-01-18T00:38:33.210Z,0
2018-01-18T00:39:43.175Z,0
2018-01-18T00:40:53.119Z,0
2018-01-18T00:42:02.795Z,0
2018-01-18T00:43:12.777Z,0
2018-01-18T00:44:22.727Z,0
2018-01-18T00:45:32.683Z,0
2018-01-18T00:46:42.373Z,0
2018-01-18T00:47:51.804Z,0
2018-01-18T00:49:01.736Z,0
2018-01-18T00:50:11.715Z,0
2018-01-18T00:51:21.734Z,0
2018-01-18T00:52:31.683Z,0
2018-01-18T00:53:41.354Z,0
2018-01-18T00:54:51.293Z,0
2018-01-18T00:56:01.224Z,0
2018-01-18T00:57:11.168Z,0
2018-01-18T00:58:20.850Z,0
2018-01-18T00:59:30.540Z,0
2018-01-18T01:00:40.491Z,0
2018-01-18T01:01:50.482Z,0
2018-01-18T01:03:00.418Z,0
2018-01-18T01:04:09.844Z,0
2018-01-18T01:05:19.535Z,0
2018-01-18T01:06:29.220Z,0
2018-01-18T01:07:38.908Z,0
2018-01-18T01:08:48.855Z,0
2018-01-18T01:09:58.815Z,0
2018-01-18T01:11:08.758Z,0
2018-01-18T01:12:18.447Z,0
2018-01-18T01:13:28.447Z,0
2018-01-18T01:14:38.136Z,0
2018-01-18T01:15:48.072Z,0
2018-01-18T01:16:57.766Z,0
2018-01-18T01:18:07.714Z,0
2018-01-18T01:19:17.660Z,0
2018-01-18T01:20:27.346Z,0
2018-01-18T01:21:37.287Z,0
2018-01-18T01:22:47.225Z,0
2018-01-18T01:23:56.915Z,0
2018-01-18T01:25:06.613Z,0
2018-01-18T01:26:16.563Z,0
2018-01-18T01:27:26.751Z,0
2018-01-18T01:28:36.443Z,0
2018-01-18T01:29:46.392Z,0
2018-01-18T01:30:56.321Z,0
2018-01-18T01:32:06.013Z,0
2018-01-18T01:33:15.695Z,0
2018-01-18T01:34:25.642Z,0
2018-01-18T01:35:35.597Z,0
2018-01-18T01:36:45.039Z,0
2018-01-18T01:37:54.981Z,0
2018-01-18T01:39:04.663Z,0
2018-01-18T01:40:14.602Z,0
2018-01-18T01:41:24.302Z,0
2018-01-18T01:42:33.982Z,0
2018-01-18T01:43:43.936Z,0
2018-01-18T01:44:53.887Z,0
2018-01-18T01:46:03.822Z,0
2018-01-18T01:47:12.986Z,0
2018-01-18T01:48:22.669Z,0
2018-01-18T01:49:32.086Z,0
2018-01-18T01:50:41.510Z,0
2018-01-18T01:51:51.198Z,0
2018-01-18T01:53:01.138Z,0
2018-01-18T01:54:10.822Z,0
2018-01-18T01:55:20.502Z,0
2018-01-18T01:56:30.443Z,0
2018-01-18T01:57:40.390Z,0
2018-01-18T01:58:50.335Z,0
2018-01-18T02:00:00.053Z,0
2018-01-18T02:01:09.756Z,0
2018-01-18T02:02:19.434Z,0
2018-01-18T02:03:29.371Z,0
2018-01-18T02:04:39.319Z,0
2018-01-18T02:05:49.000Z,0
2018-01-18T02:06:58.949Z,0
2018-01-18T02:08:08.887Z,0
2018-01-18T02:09:18.836Z,0
2018-01-18T02:10:28.765Z,0
2018-01-18T02:11:38.702Z,0
2018-01-18T02:12:48.380Z,0
2018-01-18T02:13:58.310Z,0
2018-01-18T02:15:08.003Z,0
2018-01-18T02:16:17.950Z,0
2018-01-18T02:17:27.627Z,0
2018-01-18T02:18:37.566Z,0
2018-01-18T02:19:47.256Z,0
2018-01-18T02:20:57.198Z,0
2018-01-18T02:22:07.144Z,0
2018-01-18T02:23:17.101Z,0
2018-01-18T02:24:26.838Z,0
2018-01-18T02:25:36.775Z,0
2018-01-18T02:26:46.458Z,0
2018-01-18T02:27:56.150Z,0
2018-01-18T02:29:05.841Z,0
2018-01-18T02:30:15.522Z,0
2018-01-18T02:31:25.469Z,0
2018-01-18T02:32:35.209Z,0
2018-01-18T02:33:44.639Z,0
2018-01-18T02:34:54.576Z,0
2018-01-18T02:36:04.533Z,0
2018-01-18T02:37:14.236Z,0
2018-01-18T02:38:24.166Z,0
2018-01-18T02:39:33.851Z,0
2018-01-18T02:40:43.801Z,0
2018-01-18T02:41:53.494Z,0
2018-01-18T02:43:03.178Z,0
2018-01-18T02:44:13.121Z,0
2018-01-18T02:45:22.808Z,0
2018-01-18T02:46:32.752Z,0
2018-01-18T02:47:42.438Z,0
2018-01-18T02:48:52.133Z,0
2018-01-18T02:50:02.086Z,0
2018-01-18T02:51:11.783Z,0
2018-01-18T02:52:21.480Z,0
2018-01-18T02:53:31.423Z,0
2018-01-18T02:54:40.862Z,0
2018-01-18T02:55:50.821Z,0
2018-01-18T02:57:00.520Z,0
2018-01-18T02:58:10.455Z,0
2018-01-18T02:59:20.145Z,0
2018-01-18T03:00:29.829Z,0
2018-01-18T03:01:39.760Z,0
2018-01-18T03:02:49.705Z,0
2018-01-18T03:03:59.653Z,0
2018-01-18T03:05:09.575Z,0
2018-01-18T03:06:19.524Z,0
2018-01-18T03:07:29.467Z,0
2018-01-18T03:08:39.423Z,0
2018-01-18T03:09:49.381Z,0
2018-01-18T03:10:58.810Z,0
2018-01-18T03:12:08.746Z,0
2018-01-18T03:13:18.440Z,0
2018-01-18T03:14:28.383Z,0
2018-01-18T03:15:38.328Z,0
2018-01-18T03:16:48.271Z,0
2018-01-18T03:17:57.695Z,0
2018-01-18T03:19:07.639Z,0
2018-01-18T03:20:17.322Z,0
2018-01-18T03:21:27.003Z,0
2018-01-18T03:22:36.938Z,0
2018-01-18T03:23:46.890Z,0
2018-01-18T03:24:56.835Z,0
2018-01-18T03:26:06.777Z,0
2018-01-18T03:27:16.722Z,0
2018-01-18T03:28:26.414Z,0
2018-01-18T03:29:36.346Z,0
2018-01-18T03:30:46.292Z,0
2018-01-18T03:31:55.973Z,0
2018-01-18T03:33:05.703Z,0
2018-01-18T03:34:15.651Z,0
2018-01-18T03:35:25.594Z,0
2018-01-18T03:36:35.027Z,0
2018-01-18T03:37:44.964Z,0
2018-01-18T03:38:54.908Z,0
2018-01-18T03:40:04.845Z,0
2018-01-18T03:41:14.825Z,0
2018-01-18T03:42:24.769Z,0
2018-01-18T03:43:34.706Z,0
2018-01-18T03:44:44.399Z,0
2018-01-18T03:45:54.086Z,0
2018-01-18T03:47:04.019Z,0
2018-01-18T03:48:13.975Z,0
2018-01-18T03:49:23.917Z,0
2018-01-18T03:50:33.851Z,0
2018-01-18T03:51:43.798Z,0
2018-01-18T03:52:53.781Z,0
2018-01-18T03:54:03.722Z,0
2018-01-18T03:55:13.400Z,0
2018-01-18T03:56:23.344Z,0
2018-01-18T03:57:33.033Z,0
2018-01-18T03:58:42.977Z,0
2018-01-18T03:59:52.919Z,0
2018-01-18T04:01:02.857Z,0
2018-01-18T04:02:12.536Z,0
2018-01-18T04:03:22.223Z,0
2018-01-18T04:04:32.206Z,0
2018-01-18T04:05:42.145Z,0
2018-01-18T04:06:52.087Z,0
2018-01-18T04:08:01.507Z,0
2018-01-18T04:09:11.554Z,0
2018-01-18T04:10:21.505Z,0
2018-01-18T04:11:31.444Z,0
2018-01-18T04:12:41.398Z,0
2018-01-18T04:13:51.076Z,0
2018-01-18T04:15:01.016Z,0
2018-01-18T04:16:10.956Z,0
2018-01-18T04:17:20.644Z,0
2018-01-18T04:18:30.584Z,0
2018-01-18T04:19:40.270Z,0
2018-01-18T04:20:49.970Z,0
2018-01-18T04:21:59.400Z,0
2018-01-18T04:23:09.094Z,0
2018-01-18T04:24:19.036Z,0
2018-01-18T04:25:28.985Z,0
2018-01-18T04:26:38.929Z,0
2018-01-18T04:27:48.872Z,0
2018-01-18T04:28:58.824Z,0
2018-01-18T04:30:08.764Z,0
2018-01-18T04:31:18.443Z,0
2018-01-18T04:32:28.155Z,0
2018-01-18T04:33:38.097Z,0
2018-01-18T04:34:47.770Z,0
2018-01-18T04:35:57.199Z,0
2018-01-18T04:37:07.129Z,0
2018-01-18T04:38:16.608Z,0
2018-01-18T04:39:26.288Z,0
2018-01-18T04:40:35.974Z,0
2018-01-18T04:41:45.914Z,0
2018-01-18T04:42:55.860Z,0
2018-01-18T04:44:05.806Z,0
2018-01-18T04:45:15.499Z,0
2018-01-18T04:46:25.181Z,0
2018-01-18T04:47:34.614Z,0
2018-01-18T04:48:44.305Z,0
2018-01-18T04:49:54.247Z,0
2018-01-18T04:51:03.949Z,0
2018-01-18T04:52:13.121Z,0
2018-01-18T04:53:22.811Z,0
2018-01-18T04:54:32.757Z,0
2018-01-18T04:55:42.703Z,0
2018-01-18T04:56:52.641Z,0
2018-01-18T04:58:02.076Z,0
2018-01-18T04:59:11.760Z,0
2018-01-18T05:00:21.206Z,0
2018-01-18T05:01:30.889Z,0
2018-01-18T05:02:40.575Z,0
2018-01-18T05:03:50.252Z,0
2018-01-18T05:05:00.275Z,0
2018-01-18T05:06:10.223Z,0
2018-01-18T05:07:19.651Z,0
2018-01-18T05:08:29.359Z,0
2018-01-18T05:09:39.305Z,0
2018-01-18T05:10:49.251Z,0
2018-01-18T05:11:59.204Z,0
2018-01-18T05:13:08.914Z,0
2018-01-18T05:14:18.862Z,0
2018-01-18T05:15:28.795Z,0
2018-01-18T05:16:38.741Z,0
2018-01-18T05:17:48.680Z,0
2018-01-18T05:18:58.637Z,0
2018-01-18T05:20:08.586Z,0
2018-01-18T05:21:18.531Z,0
2018-01-18T05:22:28.486Z,0
2018-01-18T05:23:38.164Z,0
2018-01-18T05:24:47.591Z,0
2018-01-18T05:25:57.264Z,0
2018-01-18T05:27:06.952Z,0
2018-01-18T05:28:16.915Z,0
2018-01-18T05:29:26.595Z,0
2018-01-18T05:30:36.017Z,0
2018-01-18T05:31:45.708Z,0
2018-01-18T05:32:55.642Z,0
2018-01-18T05:34:05.588Z,0
2018-01-18T05:35:15.274Z,0
2018-01-18T05:36:25.267Z,0
2018-01-18T05:37:35.218Z,0
2018-01-18T05:38:45.173Z,0
2018-01-18T05:39:55.115Z,0
2018-01-18T05:41:05.095Z,0
2018-01-18T05:42:15.037Z,0
2018-01-18T05:43:25.054Z,0
2018-01-18T05:44:34.998Z,0
2018-01-18T05:45:44.947Z,0
2018-01-18T05:46:54.918Z,0
2018-01-18T05:48:04.599Z,0
2018-01-18T05:49:14.534Z,0
2018-01-18T05:50:24.467Z,0
2018-01-18T05:51:34.146Z,0
2018-01-18T05:52:44.086Z,0
2018-01-18T05:53:54.037Z,0
2018-01-18T05:55:03.983Z,0
2018-01-18T05:56:13.675Z,0
2018-01-18T05:57:23.365Z,0
2018-01-18T05:58:33.325Z,0
2018-01-18T05:59:43.609Z,0
2018-01-18T06:00:53.555Z,0
2018-01-18T06:02:03.505Z,0
2018-01-18T06:03:13.450Z,0
2018-01-18T06:04:23.401Z,0
2018-01-18T06:05:33.350Z,0
2018-01-18T06:06:43.047Z,0
2018-01-18T06:07:52.732Z,0
2018-01-18T06:09:02.668Z,0
2018-01-18T06:10:12.603Z,0
2018-01-18T06:11:22.286Z,0
2018-01-18T06:12:32.223Z,0
2018-01-18T06:13:42.282Z,0
2018-01-18T06:14:51.975Z,0
2018-01-18T06:16:01.940Z,0
2018-01-18T06:17:11.889Z,0
2018-01-18T06:18:21.836Z,0
2018-01-18T06:19:31.804Z,0
2018-01-18T06:20:41.740Z,0
2018-01-18T06:21:51.420Z,0
2018-01-18T06:23:00.854Z,0
2018-01-18T06:24:10.805Z,0
2018-01-18T06:25:20.754Z,0
2018-01-18T06:26:30.443Z,0
2018-01-18T06:27:40.180Z,0
2018-01-18T06:28:49.891Z,0
2018-01-18T06:29:59.840Z,0
2018-01-18T06:31:09.269Z,0
2018-01-18T06:32:19.215Z,0
2018-01-18T06:33:28.899Z,0
2018-01-18T06:34:38.085Z,0
2018-01-18T06:35:48.028Z,0
2018-01-18T06:36:58.008Z,0
2018-01-18T06:38:07.967Z,0
2018-01-18T06:39:17.923Z,0
2018-01-18T06:40:27.863Z,0
2018-01-18T06:41:37.547Z,0
2018-01-18T06:42:47.555Z,0
2018-01-18T06:43:57.495Z,0
2018-01-18T06:45:07.463Z,0
2018-01-18T06:46:17.420Z,0
2018-01-18T06:47:27.351Z,0
2018-01-18T06:48:37.304Z,0
2018-01-18T06:49:47.275Z,0
2018-01-18T06:50:57.235Z,0
2018-01-18T06:52:07.184Z,0
2018-01-18T06:53:16.869Z,0
2018-01-18T06:54:26.814Z,0
2018-01-18T06:55:36.493Z,0
2018-01-18T06:56:46.182Z,0
2018-01-18T06:57:56.194Z,0
2018-01-18T06:59:06.148Z,5
2018-01-18T07:00:17.331Z,5
2018-01-18T07:01:27.338Z,5
2018-01-18T07:02:37.279Z,5
2018-01-18T07:03:46.989Z,5
2018-01-18T07:04:56.958Z,5
2018-01-18T07:06:06.716Z,5
2018-01-18T07:07:16.672Z,5
2018-01-18T07:08:26.615Z,10
2018-01-18T07:09:36.566Z,10
2018-01-18T07:10:46.526Z,10
2018-01-18T07:11:56.218Z,10
2018-01-18T07:13:06.176Z,15
2018-01-18T07:14:16.129Z,15
2018-01-18T07:15:25.811Z,15
2018-01-18T07:16:35.511Z,15
2018-01-18T07:17:45.683Z,15
2018-01-18T07:18:55.694Z,20
2018-01-18T07:20:05.637Z,20
2018-01-18T07:21:15.320Z,20
2018-01-18T07:22:25.004Z,20
2018-01-18T07:23:34.935Z,20
2018-01-18T07:24:44.628Z,25
2018-01-18T07:25:54.067Z,25
2018-01-18T07:27:04.031Z,25
2018-01-18T07:28:13.995Z,30
2018-01-18T07:29:23.933Z,30
2018-01-18T07:30:33.621Z,35
2018-01-18T07:31:43.561Z,40
2018-01-18T07:32:53.508Z,40
2018-01-18T07:34:03.464Z,45
2018-01-18T07:35:13.150Z,45
2018-01-18T07:36:23.092Z,50
2018-01-18T07:37:33.049Z,50
2018-01-18T07:38:42.487Z,50
2018-01-18T07:39:52.179Z,50
2018-01-18T07:41:01.897Z,50
2018-01-18T07:42:11.851Z,50
2018-01-18T07:43:21.817Z,50
2018-01-18T07:44:31.759Z,50
2018-01-18T07:45:41.728Z,50
2018-01-18T07:46:51.520Z,50
2018-01-18T07:48:01.477Z,50
2018-01-18T07:49:11.450Z,55
2018-01-18T07:50:21.408Z,55
2018-01-18T07:51:31.390Z,60
2018-01-18T07:52:41.353Z,60
2018-01-18T07:53:51.049Z,65
2018-01-18T07:55:01.023Z,65
2018-01-18T07:56:10.765Z,65
2018-01-18T07:57:20.452Z,65
2018-01-18T07:58:29.904Z,65
2018-01-18T07:59:39.923Z,65
2018-01-18T08:00:49.911Z,65
2018-01-18T08:01:59.889Z,60
2018-01-18T08:03:09.579Z,60
2018-01-18T08:04:19.538Z,60
2018-01-18T08:05:29.484Z,65
2018-01-18T08:06:38.653Z,65
2018-01-18T08:07:48.096Z,65
2018-01-18T08:08:58.075Z,60
2018-01-18T08:10:08.022Z,60
2018-01-18T08:11:17.726Z,60
2018-01-18T08:12:27.428Z,55
2018-01-18T08:13:37.389Z,55
2018-01-18T08:14:47.081Z,55
2018-01-18T08:15:56.565Z,50
2018-01-18T08:17:06.538Z,50
2018-01-18T08:18:16.263Z,50
2018-01-18T08:19:26.235Z,45
2018-01-18T08:20:36.201Z,45
2018-01-18T08:21:46.159Z,50
2018-01-18T08:22:55.593Z,55
2018-01-18T08:24:05.556Z,55
2018-01-18T08:25:15.511Z,55
2018-01-18T08:26:25.206Z,60
2018-01-18T08:27:35.187Z,65
2018-01-18T08:28:44.886Z,75
2018-01-18T08:29:54.846Z,80
2018-01-18T08:31:04.587Z,90
2018-01-18T08:32:14.277Z,95
2018-01-18T08:33:24.244Z,95
2018-01-18T08:34:34.184Z,95
2018-01-18T08:35:44.138Z,95
2018-01-18T08:36:54.091Z,100
2018-01-18T08:38:03.778Z,100
2018-01-18T08:39:13.722Z,100
2018-01-18T08:40:23.697Z,100
2018-01-18T08:41:33.463Z,100
2018-01-18T08:42:43.414Z,105
2018-01-18T08:43:53.374Z,110
2018-01-18T08:45:03.060Z,125
2018-01-18T08:46:13.004Z,145
2018-01-18T08:47:22.955Z,160
2018-01-18T08:48:32.923Z,180
2018-01-18T08:49:42.896Z,190
2018-01-18T08:50:52.891Z,190
2018-01-18T08:52:02.836Z,180
2018-01-18T08:53:12.528Z,165
2018-01-18T08:54:22.465Z,145
2018-01-18T08:55:32.413Z,140
2018-01-18T08:56:42.411Z,125
2018-01-18T08:57:52.543Z,115
2018-01-18T08:59:02.237Z,105
2018-01-18T09:00:12.204Z,95
2018-01-18T09:01:21.902Z,85
2018-01-18T09:02:31.605Z,75
2018-01-18T09:03:41.562Z,75
2018-01-18T09:04:51.254Z,65
2018-01-18T09:06:01.507Z,65
2018-01-18T09:07:11.208Z,65
2018-01-18T09:08:21.172Z,65
2018-01-18T09:09:31.123Z,70
2018-01-18T09:10:41.080Z,70
2018-01-18T09:11:51.040Z,70
2018-01-18T09:13:00.998Z,70
2018-01-18T09:14:10.942Z,70
2018-01-18T09:15:20.918Z,60
2018-01-18T09:16:30.891Z,60
2018-01-18T09:17:40.837Z,65
2018-01-18T09:18:50.281Z,75
2018-01-18T09:20:00.017Z,80
2018-01-18T09:21:10.016Z,85
2018-01-18T09:22:20.009Z,80
2018-01-18T09:23:29.962Z,85
2018-01-18T09:24:39.647Z,85
2018-01-18T09:25:49.394Z,85
2018-01-18T09:26:59.082Z,85
2018-01-18T09:28:08.847Z,90
2018-01-18T09:29:18.870Z,85
2018-01-18T09:30:28.559Z,80
2018-01-18T09:31:38.459Z,85
2018-01-18T09:32:47.880Z,90
2018-01-18T09:33:57.845Z,90
2018-01-18T09:35:07.552Z,95
2018-01-18T09:36:17.512Z,95
2018-01-18T09:37:27.456Z,90
2018-01-18T09:38:37.114Z,90
2018-01-18T09:39:46.818Z,90
2018-01-18T09:40:56.674Z,95
2018-01-18T09:42:06.647Z,90
2018-01-18T09:43:16.349Z,90
2018-01-18T09:44:26.043Z,90
2018-01-18T09:45:35.796Z,105
2018-01-18T09:46:45.508Z,125
2018-01-18T09:47:55.483Z,125
2018-01-18T09:49:04.925Z,110
2018-01-18T09:50:14.600Z,95
2018-01-18T09:51:24.549Z,90
2018-01-18T09:52:33.987Z,85
2018-01-18T09:53:43.947Z,80
2018-01-18T09:54:53.904Z,70
2018-01-18T09:56:03.873Z,70
2018-01-18T09:57:13.851Z,65
2018-01-18T09:58:23.841Z,65
2018-01-18T09:59:33.294Z,60
2018-01-18T10:00:43.265Z,60
2018-01-18T10:01:53.029Z,50
2018-01-18T10:03:02.742Z,45
2018-01-18T10:04:12.691Z,40
2018-01-18T10:05:22.394Z,40
2018-01-18T10:06:32.348Z,35
2018-01-18T10:07:42.333Z,35
2018-01-18T10:08:52.302Z,25
2018-01-18T10:10:02.254Z,30
2018-01-18T10:11:11.985Z,25
2018-01-18T10:12:21.473Z,20
2018-01-18T10:13:31.454Z,25
2018-01-18T10:14:41.467Z,25
2018-01-18T10:15:51.485Z,25
2018-01-18T10:17:01.435Z,25
2018-01-18T10:18:11.396Z,30
2018-01-18T10:19:21.110Z,25
2018-01-18T10:20:31.082Z,25
2018-01-18T10:21:41.057Z,25
2018-01-18T10:22:50.743Z,30
2018-01-18T10:24:00.690Z,35
2018-01-18T10:25:10.678Z,50
2018-01-18T10:26:20.382Z,50
2018-01-18T10:27:30.395Z,60
2018-01-18T10:28:40.362Z,65
2018-01-18T10:29:50.316Z,60
2018-01-18T10:31:00.511Z,55
2018-01-18T10:32:10.474Z,50
2018-01-18T10:33:20.182Z,60
2018-01-18T10:34:30.165Z,65
2018-01-18T10:35:40.128Z,60
2018-01-18T10:36:50.240Z,70
2018-01-18T10:38:00.215Z,70
2018-01-18T10:39:10.201Z,65
2018-01-18T10:40:20.154Z,55
2018-01-18T10:41:30.116Z,55
2018-01-18T10:42:40.072Z,45
2018-01-18T10:43:49.839Z,45
2018-01-18T10:44:59.834Z,50
2018-01-18T10:46:09.815Z,50
2018-01-18T10:47:19.775Z,50
2018-01-18T10:48:29.768Z,60
2018-01-18T10:49:39.738Z,50
2018-01-18T10:50:49.577Z,55
2018-01-18T10:51:59.297Z,65
2018-01-18T10:53:09.261Z,70
2018-01-18T10:54:19.216Z,65
2018-01-18T10:55:29.188Z,70
2018-01-18T10:56:39.164Z,70
2018-01-18T10:57:48.866Z,70
2018-01-18T10:58:59.311Z,80
2018-01-18T11:00:09.108Z,90
2018-01-18T11:01:18.824Z,80
2018-01-18T11:02:28.789Z,75
2018-01-18T11:03:38.804Z,60
2018-01-18T11:04:48.814Z,55
2018-01-18T11:05:58.515Z,55
2018-01-18T11:07:08.468Z,50
2018-01-18T11:08:18.427Z,45
2018-01-18T11:09:28.464Z,45
2018-01-18T11:10:38.445Z,40
2018-01-18T11:11:48.397Z,35
2018-01-18T11:12:58.349Z,35
2018-01-18T11:14:08.122Z,35
2018-01-18T11:15:18.081Z,40
2018-01-18T11:16:28.058Z,40
2018-01-18T11:17:38.028Z,45
2018-01-18T11:18:47.970Z,55
2018-01-18T11:19:57.674Z,55
2018-01-18T11:21:07.364Z,60
2018-01-18T11:22:17.330Z,65
2018-01-18T11:23:27.028Z,80
2018-01-18T11:24:37.005Z,100
2018-01-18T11:25:46.975Z,90
2018-01-18T11:26:56.929Z,80
2018-01-18T11:28:06.648Z,85
2018-01-18T11:29:16.615Z,65
2018-01-18T11:30:26.317Z,50
2018-01-18T11:31:36.266Z,50
2018-01-18T11:32:46.213Z,55
2018-01-18T11:33:56.159Z,60
2018-01-18T11:35:06.114Z,60
2018-01-18T11:36:15.838Z,45
2018-01-18T11:37:25.805Z,40
2018-01-18T11:38:35.764Z,35
2018-01-18T11:39:45.470Z,35
2018-01-18T11:40:55.158Z,50
2018-01-18T11:42:04.855Z,50
2018-01-18T11:43:14.819Z,45
2018-01-18T11:44:24.788Z,50
2018-01-18T11:45:34.737Z,50
2018-01-18T11:46:44.810Z,50
2018-01-18T11:47:54.746Z,50
2018-01-18T11:49:04.717Z,50
2018-01-18T11:50:14.666Z,40
2018-01-18T11:51:24.357Z,35
2018-01-18T11:52:34.039Z,30
2018-01-18T11:53:43.988Z,35
2018-01-18T11:54:53.676Z,45
2018-01-18T11:56:03.662Z,55
2018-01-18T11:57:13.601Z,65
2018-01-18T11:58:23.558Z,70
2018-01-18T11:59:33.520Z,65
2018-01-18T12:00:43.445Z,55
2018-01-18T12:01:53.408Z,40
2018-01-18T12:03:03.352Z,35
2018-01-18T12:04:13.078Z,45
2018-01-18T12:05:23.044Z,45
2018-01-18T12:06:32.987Z,50
2018-01-18T12:07:43.034Z,60
2018-01-18T12:08:52.977Z,65
2018-01-18T12:10:02.944Z,95
2018-01-18T12:11:12.886Z,150
2018-01-18T12:12:22.905Z,180
2018-01-18T12:13:32.846Z,170
2018-01-18T12:14:42.807Z,150
2018-01-18T12:15:52.753Z,115
2018-01-18T12:17:02.701Z,85
2018-01-18T12:18:12.667Z,65
2018-01-18T12:19:22.378Z,55
2018-01-18T12:20:32.318Z,55
2018-01-18T12:21:42.020Z,65
2018-01-18T12:22:51.709Z,60
2018-01-18T12:24:01.663Z,50
2018-01-18T12:25:11.618Z,50
2018-01-18T12:26:21.565Z,55
2018-01-18T12:27:31.519Z,65
2018-01-18T12:28:41.472Z,75
2018-01-18T12:29:51.190Z,75
2018-01-18T12:31:01.133Z,85
2018-01-18T12:32:11.099Z,85
2018-01-18T12:33:21.051Z,60
2018-01-18T12:34:31.085Z,45
2018-01-18T12:35:41.030Z,35
2018-01-18T12:36:50.977Z,35
2018-01-18T12:38:00.914Z,35
2018-01-18T12:39:10.358Z,35
2018-01-18T12:40:20.049Z,30
2018-01-18T12:41:29.726Z,30
2018-01-18T12:42:39.415Z,30
2018-01-18T12:43:49.143Z,45
2018-01-18T12:44:59.145Z,60
2018-01-18T12:46:09.101Z,75
2018-01-18T12:47:19.077Z,65
2018-01-18T12:48:29.047Z,40
2018-01-18T12:49:38.728Z,30
2018-01-18T12:50:48.414Z,25
2018-01-18T12:51:58.342Z,35
2018-01-18T12:53:08.311Z,45
2018-01-18T12:54:17.997Z,60
2018-01-18T12:55:27.948Z,75
2018-01-18T12:56:37.919Z,100
2018-01-18T12:57:47.723Z,85
2018-01-18T12:58:57.672Z,80
2018-01-18T13:00:07.661Z,80
2018-01-18T13:01:17.639Z,75
2018-01-18T13:02:27.078Z,65
2018-01-18T13:03:36.763Z,65
2018-01-18T13:04:46.767Z,55
2018-01-18T13:05:56.445Z,55
2018-01-18T13:07:06.134Z,65
2018-01-18T13:08:16.099Z,70
2018-01-18T13:09:26.065Z,80
2018-01-18T13:10:36.011Z,65
2018-01-18T13:11:45.718Z,65
2018-01-18T13:12:55.399Z,85
2018-01-18T13:14:05.344Z,105
2018-01-18T13:15:14.844Z,125
2018-01-18T13:16:24.817Z,135
2018-01-18T13:17:34.260Z,130
2018-01-18T13:18:44.218Z,140
2018-01-18T13:19:54.205Z,135
2018-01-18T13:21:04.142Z,145
2018-01-18T13:22:13.600Z,140
2018-01-18T13:23:23.561Z,155
2018-01-18T13:24:33.250Z,120
2018-01-18T13:25:43.001Z,105
2018-01-18T13:26:52.704Z,100
2018-01-18T13:28:02.667Z,85
2018-01-18T13:29:12.396Z,75
2018-01-18T13:30:22.376Z,70
2018-01-18T13:31:32.064Z,55
2018-01-18T13:32:42.029Z,45
2018-01-18T13:33:51.714Z,35
2018-01-18T13:35:01.671Z,35
2018-01-18T13:36:11.367Z,35
2018-01-18T13:37:21.044Z,30
2018-01-18T13:38:30.736Z,35
2018-01-18T13:39:40.688Z,30
2018-01-18T13:40:50.648Z,35
2018-01-18T13:42:00.609Z,30
2018-01-18T13:43:10.293Z,30
2018-01-18T13:44:19.988Z,30
2018-01-18T13:45:29.678Z,30
2018-01-18T13:46:39.371Z,35
2018-01-18T13:47:49.342Z,35
2018-01-18T13:48:59.291Z,30
2018-01-18T13:50:09.244Z,30
2018-01-18T13:51:19.188Z,30
2018-01-18T13:52:29.133Z,25
2018-01-18T13:53:38.851Z,25
2018-01-18T13:54:48.548Z,30
2018-01-18T13:55:58.551Z,40
2018-01-18T13:57:08.514Z,45
2018-01-18T13:58:18.514Z,45
2018-01-18T13:59:28.465Z,50
2018-01-18T14:00:38.436Z,45
2018-01-18T14:01:48.396Z,40
2018-01-18T14:02:58.352Z,40
2018-01-18T14:04:08.477Z,35
2018-01-18T14:05:18.438Z,25
2018-01-18T14:06:28.438Z,30
2018-01-18T14:07:38.402Z,40
2018-01-18T14:08:48.360Z,30
2018-01-18T14:09:58.217Z,20
2018-01-18T14:11:08.191Z,15
2018-01-18T14:12:18.167Z,15
2018-01-18T14:13:28.108Z,15
2018-01-18T14:14:37.808Z,20
2018-01-18T14:15:47.246Z,30
2018-01-18T14:16:57.206Z,25
2018-01-18T14:18:07.163Z,25
2018-01-18T14:19:17.122Z,15
2018-01-18T14:20:27.077Z,15
2018-01-18T14:21:37.042Z,20
2018-01-18T14:22:46.723Z,25
2018-01-18T14:23:56.421Z,20
2018-01-18T14:25:06.113Z,20
2018-01-18T14:26:15.811Z,25
2018-01-18T14:27:25.770Z,50
2018-01-18T14:28:35.281Z,65
2018-01-18T14:29:45.015Z,40
2018-01-18T14:30:54.961Z,55
2018-01-18T14:32:04.662Z,55
2018-01-18T14:33:14.619Z,40
2018-01-18T14:34:24.592Z,40
2018-01-18T14:35:34.061Z,30
2018-01-18T14:36:43.758Z,30
2018-01-18T14:37:53.476Z,30
2018-01-18T14:39:03.169Z,30
2018-01-18T14:40:13.118Z,25
2018-01-18T14:41:23.117Z,30
2018-01-18T14:42:33.081Z,20
2018-01-18T14:43:43.033Z,20
2018-01-18T14:44:52.998Z,20
2018-01-18T14:46:02.964Z,20
2018-01-18T14:47:12.662Z,15
2018-01-18T14:48:22.363Z,15
2018-01-18T14:49:32.325Z,15
2018-01-18T14:50:42.265Z,10
2018-01-18T14:51:51.703Z,10
2018-01-18T14:53:01.661Z,10
2018-01-18T14:54:11.359Z,10
2018-01-18T14:55:21.317Z,10
2018-01-18T14:56:31.011Z,15
2018-01-18T14:57:40.708Z,15
2018-01-18T14:58:50.388Z,15
2018-01-18T14:59:59.831Z,10
2018-01-18T15:01:09.785Z,15
2018-01-18T15:02:19.781Z,15
2018-01-18T15:03:29.749Z,20
2018-01-18T15:04:39.687Z,10
2018-01-18T15:05:49.766Z,10
2018-01-18T15:06:59.219Z,15
2018-01-18T15:08:09.169Z,10
2018-01-18T15:09:19.119Z,10
2018-01-18T15:10:29.080Z,10
2018-01-18T15:11:39.042Z,15
2018-01-18T15:12:49.022Z,10
2018-01-18T15:13:58.463Z,10
2018-01-18T15:15:08.444Z,10
2018-01-18T15:16:18.159Z,10
2018-01-18T15:17:28.211Z,5
2018-01-18T15:18:38.279Z,5
2018-01-18T15:19:47.972Z,5
2018-01-18T15:20:57.669Z,5
2018-01-18T15:22:07.173Z,5
2018-01-18T15:23:17.112Z,5
2018-01-18T15:24:26.847Z,5
2018-01-18T15:25:36.799Z,5
2018-01-18T15:26:46.749Z,5
2018-01-18T15:27:56.700Z,5
2018-01-18T15:29:06.654Z,5
2018-01-18T15:30:16.358Z,0
2018-01-18T15:31:26.318Z,0
2018-01-18T15:32:35.491Z,0
2018-01-18T15:33:45.442Z,0
2018-01-18T15:34:55.383Z,0
2018-01-18T15:36:05.390Z,0
2018-01-18T15:37:15.086Z,0
2018-01-18T15:38:25.042Z,0
2018-01-18T15:39:34.982Z,0
2018-01-18T15:40:44.173Z,0
2018-01-18T15:41:54.267Z,0
2018-01-18T15:43:04.208Z,0
2018-01-18T15:44:13.916Z,0
2018-01-18T15:45:23.354Z,0
2018-01-18T15:46:33.055Z,0
2018-01-18T15:47:42.760Z,0
2018-01-18T15:48:52.714Z,0
2018-01-18T15:50:02.699Z,0
2018-01-18T15:51:12.885Z,0
2018-01-18T15:52:22.584Z,0
2018-01-18T15:53:32.528Z,0
2018-01-18T15:54:42.476Z,0
2018-01-18T15:55:52.171Z,0
2018-01-18T15:57:01.862Z,0
2018-01-18T15:58:11.299Z,0
2018-01-18T15:59:21.311Z,0
2018-01-18T16:00:31.295Z,0
2018-01-18T16:01:41.242Z,0
2018-01-18T16:02:50.963Z,0
2018-01-18T16:04:00.906Z,0
2018-01-18T16:05:10.611Z,0
2018-01-18T16:06:20.319Z,0
2018-01-18T16:07:30.011Z,0
2018-01-18T16:08:39.714Z,0
2018-01-18T16:09:49.660Z,0
2018-01-18T16:10:59.355Z,0
2018-01-18T16:12:09.326Z,0
2018-01-18T16:13:19.287Z,0
2018-01-18T16:14:29.223Z,0
2018-01-18T16:15:38.913Z,0
2018-01-18T16:16:48.617Z,0
2018-01-18T16:17:58.312Z,0
2018-01-18T16:19:08.263Z,0
2018-01-18T16:20:17.947Z,0
2018-01-18T16:21:27.379Z,0
2018-01-18T16:22:37.066Z,0
2018-01-18T16:23:46.761Z,0
2018-01-18T16:24:56.715Z,0
2018-01-18T16:26:06.469Z,0
2018-01-18T16:27:16.216Z,0
2018-01-18T16:28:25.916Z,0
2018-01-18T16:29:35.609Z,0
2018-01-18T16:30:45.300Z,0
2018-01-18T16:31:55.263Z,0
2018-01-18T16:33:05.207Z,0
2018-01-18T16:34:14.899Z,0
2018-01-18T16:35:24.577Z,0
2018-01-18T16:36:34.536Z,0
2018-01-18T16:37:44.502Z,0
2018-01-18T16:38:54.460Z,0
2018-01-18T16:40:04.431Z,0
2018-01-18T16:41:14.466Z,0
2018-01-18T16:42:24.453Z,0
2018-01-18T16:43:34.415Z,0
2018-01-18T16:44:44.361Z,0
2018-01-18T16:45:54.368Z,0
2018-01-18T16:47:03.824Z,0
2018-01-18T16:48:13.802Z,0
2018-01-18T16:49:23.763Z,0
2018-01-18T16:50:33.835Z,0
2018-01-18T16:51:43.794Z,0
2018-01-18T16:52:53.009Z,0